sensor_id;sensor_type;location;lat;lon;timestamp;temperature;humidity
4695;DHT22;2361;49.540;8.390;2023-03-01T00:01:39;1.40;99.90
4695;DHT22;2361;49.540;8.390;2023-03-01T00:04:06;1.40;99.90
4695;DHT22;2361;49.540;8.390;2023-03-01T00:06:33;1.30;99.90
4695;DHT22;2361;49.540;8.390;2023-03-01T00:09:00;1.20;99.90
4695;DHT22;2361;49.540;8.390;2023-03-01T00:11:29;1.20;99.90
4695;DHT22;2361;49.540;8.390;2023-03-01T00:13:59;1.10;99.90
4695;DHT22;2361;49.540;8.390;2023-03-01T00:16:30;1.10;99.90
4695;DHT22;2361;49.540;8.390;2023-03-01T00:19:00;1.10;99.90
4695;DHT22;2361;49.540;8.390;2023-03-01T00:21:27;1.10;99.90
4695;DHT22;2361;49.540;8.390;2023-03-01T00:23:54;1.10;99.90
4695;DHT22;2361;49.540;8.390;2023-03-01T00:26:23;1.00;99.90
4695;DHT22;2361;49.540;8.390;2023-03-01T00:28:51;0.90;99.90
4695;DHT22;2361;49.540;8.390;2023-03-01T00:31:21;0.90;99.90
4695;DHT22;2361;49.540;8.390;2023-03-01T00:33:53;0.90;99.90
4695;DHT22;2361;49.540;8.390;2023-03-01T00:36:26;0.80;99.90
4695;DHT22;2361;49.540;8.390;2023-03-01T00:38:55;0.90;99.90
4695;DHT22;2361;49.540;8.390;2023-03-01T00:41:23;0.90;99.90
4695;DHT22;2361;49.540;8.390;2023-03-01T00:43:50;0.90;99.90
4695;DHT22;2361;49.540;8.390;2023-03-01T00:46:20;0.90;99.90
4695;DHT22;2361;49.540;8.390;2023-03-01T00:48:48;0.90;99.90
4695;DHT22;2361;49.540;8.390;2023-03-01T00:51:20;0.90;99.90
4695;DHT22;2361;49.540;8.390;2023-03-01T00:53:54;0.90;99.90
4695;DHT22;2361;49.540;8.390;2023-03-01T00:56:23;0.80;99.90
4695;DHT22;2361;49.540;8.390;2023-03-01T00:58:50;0.80;99.90
4695;DHT22;2361;49.540;8.390;2023-03-01T01:01:20;0.80;99.90
4695;DHT22;2361;49.540;8.390;2023-03-01T01:03:51;0.70;99.90
4695;DHT22;2361;49.540;8.390;2023-03-01T01:06:27;0.70;99.90
4695;DHT22;2361;49.540;8.390;2023-03-01T01:08:56;0.70;99.90
4695;DHT22;2361;49.540;8.390;2023-03-01T01:11:28;0.80;99.90
4695;DHT22;2361;49.540;8.390;2023-03-01T01:13:56;0.70;99.90
4695;DHT22;2361;49.540;8.390;2023-03-01T01:16:25;0.70;99.90
4695;DHT22;2361;49.540;8.390;2023-03-01T01:18:53;0.70;99.90
4695;DHT22;2361;49.540;8.390;2023-03-01T01:21:23;0.70;99.90
4695;DHT22;2361;49.540;8.390;2023-03-01T01:23:50;0.70;99.90
4695;DHT22;2361;49.540;8.390;2023-03-01T01:26:21;0.70;99.90
4695;DHT22;2361;49.540;8.390;2023-03-01T01:28:50;0.70;99.90
4695;DHT22;2361;49.540;8.390;2023-03-01T01:31:18;0.70;99.90
4695;DHT22;2361;49.540;8.390;2023-03-01T01:33:46;0.70;99.90
4695;DHT22;2361;49.540;8.390;2023-03-01T01:36:13;0.70;99.90
4695;DHT22;2361;49.540;8.390;2023-03-01T01:38:40;0.60;99.90
4695;DHT22;2361;49.540;8.390;2023-03-01T01:41:10;0.70;99.90
4695;DHT22;2361;49.540;8.390;2023-03-01T01:43:46;0.70;99.90
4695;DHT22;2361;49.540;8.390;2023-03-01T01:46:29;0.70;99.90
4695;DHT22;2361;49.540;8.390;2023-03-01T01:51:47;0.70;99.90
4695;DHT22;2361;49.540;8.390;2023-03-01T01:54:20;0.80;99.90
4695;DHT22;2361;49.540;8.390;2023-03-01T01:57:00;0.70;99.90
4695;DHT22;2361;49.540;8.390;2023-03-01T01:59:31;0.70;99.90
4695;DHT22;2361;49.540;8.390;2023-03-01T02:02:02;0.70;99.90
4695;DHT22;2361;49.540;8.390;2023-03-01T02:04:31;0.70;99.90
4695;DHT22;2361;49.540;8.390;2023-03-01T02:07:03;0.70;99.90
4695;DHT22;2361;49.540;8.390;2023-03-01T02:09:36;0.70;99.90
4695;DHT22;2361;49.540;8.390;2023-03-01T02:12:04;0.70;99.90
4695;DHT22;2361;49.540;8.390;2023-03-01T02:14:31;0.70;99.90
4695;DHT22;2361;49.540;8.390;2023-03-01T02:16:58;0.70;99.90
4695;DHT22;2361;49.540;8.390;2023-03-01T02:22:36;0.70;99.90
4695;DHT22;2361;49.540;8.390;2023-03-01T02:30:36;0.50;99.90
4695;DHT22;2361;49.540;8.390;2023-03-01T02:33:03;0.50;99.90
4695;DHT22;2361;49.540;8.390;2023-03-01T02:35:36;0.50;99.90
4695;DHT22;2361;49.540;8.390;2023-03-01T02:38:07;0.50;99.90
4695;DHT22;2361;49.540;8.390;2023-03-01T02:40:36;0.50;99.90
4695;DHT22;2361;49.540;8.390;2023-03-01T02:43:07;0.40;99.90
4695;DHT22;2361;49.540;8.390;2023-03-01T02:45:36;0.40;99.90
4695;DHT22;2361;49.540;8.390;2023-03-01T02:48:03;0.40;99.90
4695;DHT22;2361;49.540;8.390;2023-03-01T02:56:10;0.50;99.90
4695;DHT22;2361;49.540;8.390;2023-03-01T02:58:41;0.40;99.90
4695;DHT22;2361;49.540;8.390;2023-03-01T03:01:12;0.40;99.90
4695;DHT22;2361;49.540;8.390;2023-03-01T03:03:42;0.40;99.90
4695;DHT22;2361;49.540;8.390;2023-03-01T03:06:09;0.40;99.90
4695;DHT22;2361;49.540;8.390;2023-03-01T03:08:36;0.40;99.90
4695;DHT22;2361;49.540;8.390;2023-03-01T03:11:03;0.30;99.90
4695;DHT22;2361;49.540;8.390;2023-03-01T03:13:30;0.30;99.90
4695;DHT22;2361;49.540;8.390;2023-03-01T03:15:58;0.30;99.90
4695;DHT22;2361;49.540;8.390;2023-03-01T03:18:25;0.30;99.90
4695;DHT22;2361;49.540;8.390;2023-03-01T03:20:53;0.30;99.90
4695;DHT22;2361;49.540;8.390;2023-03-01T03:23:21;0.30;99.90
4695;DHT22;2361;49.540;8.390;2023-03-01T03:25:51;0.30;99.90
4695;DHT22;2361;49.540;8.390;2023-03-01T03:28:18;0.20;99.90
4695;DHT22;2361;49.540;8.390;2023-03-01T03:30:45;0.20;99.90
4695;DHT22;2361;49.540;8.390;2023-03-01T03:33:13;0.20;99.90
4695;DHT22;2361;49.540;8.390;2023-03-01T03:35:43;0.20;99.90
4695;DHT22;2361;49.540;8.390;2023-03-01T03:38:14;0.20;99.90
4695;DHT22;2361;49.540;8.390;2023-03-01T03:41:01;0.20;99.90
4695;DHT22;2361;49.540;8.390;2023-03-01T03:43:32;0.20;99.90
4695;DHT22;2361;49.540;8.390;2023-03-01T03:46:00;0.20;99.90
4695;DHT22;2361;49.540;8.390;2023-03-01T03:48:27;0.30;99.90
4695;DHT22;2361;49.540;8.390;2023-03-01T03:50:55;0.30;99.90
4695;DHT22;2361;49.540;8.390;2023-03-01T03:53:25;0.40;99.90
4695;DHT22;2361;49.540;8.390;2023-03-01T03:55:53;0.30;99.90
4695;DHT22;2361;49.540;8.390;2023-03-01T03:58:22;0.30;99.90
4695;DHT22;2361;49.540;8.390;2023-03-01T04:00:53;0.30;99.90
4695;DHT22;2361;49.540;8.390;2023-03-01T04:03:23;0.30;99.90
4695;DHT22;2361;49.540;8.390;2023-03-01T04:05:52;0.40;99.90
4695;DHT22;2361;49.540;8.390;2023-03-01T04:08:21;0.30;99.90
4695;DHT22;2361;49.540;8.390;2023-03-01T04:10:52;0.30;99.90
4695;DHT22;2361;49.540;8.390;2023-03-01T04:13:23;0.30;99.90
4695;DHT22;2361;49.540;8.390;2023-03-01T04:15:53;0.30;99.90
4695;DHT22;2361;49.540;8.390;2023-03-01T04:18:22;0.30;99.90
4695;DHT22;2361;49.540;8.390;2023-03-01T04:20:52;0.30;99.90
4695;DHT22;2361;49.540;8.390;2023-03-01T04:23:21;0.30;99.90
4695;DHT22;2361;49.540;8.390;2023-03-01T04:25:51;0.30;99.90
4695;DHT22;2361;49.540;8.390;2023-03-01T04:28:42;0.30;99.90
4695;DHT22;2361;49.540;8.390;2023-03-01T04:31:14;0.20;99.90
4695;DHT22;2361;49.540;8.390;2023-03-01T04:33:48;0.30;99.90
4695;DHT22;2361;49.540;8.390;2023-03-01T04:36:19;0.20;99.90
4695;DHT22;2361;49.540;8.390;2023-03-01T04:38:48;0.20;99.90
4695;DHT22;2361;49.540;8.390;2023-03-01T04:41:17;0.20;99.90
4695;DHT22;2361;49.540;8.390;2023-03-01T04:43:46;0.20;99.90
4695;DHT22;2361;49.540;8.390;2023-03-01T04:46:15;0.20;99.90
4695;DHT22;2361;49.540;8.390;2023-03-01T04:48:44;0.20;99.90
4695;DHT22;2361;49.540;8.390;2023-03-01T04:51:13;0.20;99.90
4695;DHT22;2361;49.540;8.390;2023-03-01T04:53:41;0.20;99.90
4695;DHT22;2361;49.540;8.390;2023-03-01T04:56:09;0.20;99.90
4695;DHT22;2361;49.540;8.390;2023-03-01T04:58:36;0.20;99.90
4695;DHT22;2361;49.540;8.390;2023-03-01T05:01:12;0.30;99.90
4695;DHT22;2361;49.540;8.390;2023-03-01T05:03:51;0.20;99.90
4695;DHT22;2361;49.540;8.390;2023-03-01T05:06:19;0.30;99.90
4695;DHT22;2361;49.540;8.390;2023-03-01T05:08:47;0.40;99.90
4695;DHT22;2361;49.540;8.390;2023-03-01T05:11:14;0.30;99.90
4695;DHT22;2361;49.540;8.390;2023-03-01T05:13:41;0.30;99.90
4695;DHT22;2361;49.540;8.390;2023-03-01T05:16:09;0.40;99.90
4695;DHT22;2361;49.540;8.390;2023-03-01T05:18:38;0.40;99.90
4695;DHT22;2361;49.540;8.390;2023-03-01T05:21:08;0.40;99.90
4695;DHT22;2361;49.540;8.390;2023-03-01T05:23:37;0.50;99.90
4695;DHT22;2361;49.540;8.390;2023-03-01T05:26:05;0.40;99.90
4695;DHT22;2361;49.540;8.390;2023-03-01T05:28:41;0.50;99.90
4695;DHT22;2361;49.540;8.390;2023-03-01T05:31:08;0.50;99.90
4695;DHT22;2361;49.540;8.390;2023-03-01T05:33:40;0.40;99.90
4695;DHT22;2361;49.540;8.390;2023-03-01T05:36:08;0.50;99.90
4695;DHT22;2361;49.540;8.390;2023-03-01T05:38:38;0.50;99.90
4695;DHT22;2361;49.540;8.390;2023-03-01T05:41:13;0.50;99.90
4695;DHT22;2361;49.540;8.390;2023-03-01T05:43:41;0.60;99.90
4695;DHT22;2361;49.540;8.390;2023-03-01T05:46:11;0.60;99.90
4695;DHT22;2361;49.540;8.390;2023-03-01T05:48:40;0.60;99.90
4695;DHT22;2361;49.540;8.390;2023-03-01T05:51:07;0.60;99.90
4695;DHT22;2361;49.540;8.390;2023-03-01T05:53:34;0.60;99.90
4695;DHT22;2361;49.540;8.390;2023-03-01T05:56:06;0.60;99.90
4695;DHT22;2361;49.540;8.390;2023-03-01T05:58:33;0.70;99.90
4695;DHT22;2361;49.540;8.390;2023-03-01T06:01:00;0.70;99.90
4695;DHT22;2361;49.540;8.390;2023-03-01T06:03:27;0.70;99.90
4695;DHT22;2361;49.540;8.390;2023-03-01T06:05:57;0.80;99.90
4695;DHT22;2361;49.540;8.390;2023-03-01T06:08:24;0.80;99.90
4695;DHT22;2361;49.540;8.390;2023-03-01T06:10:53;0.70;99.90
4695;DHT22;2361;49.540;8.390;2023-03-01T06:13:20;0.80;99.90
4695;DHT22;2361;49.540;8.390;2023-03-01T06:15:47;0.80;99.90
4695;DHT22;2361;49.540;8.390;2023-03-01T06:18:14;0.80;99.90
4695;DHT22;2361;49.540;8.390;2023-03-01T06:20:41;0.80;99.90
4695;DHT22;2361;49.540;8.390;2023-03-01T06:23:08;0.90;99.90
4695;DHT22;2361;49.540;8.390;2023-03-01T06:25:37;1.00;99.90
4695;DHT22;2361;49.540;8.390;2023-03-01T06:28:04;1.10;99.90
4695;DHT22;2361;49.540;8.390;2023-03-01T06:30:30;1.20;99.90
4695;DHT22;2361;49.540;8.390;2023-03-01T06:32:58;1.30;99.90
4695;DHT22;2361;49.540;8.390;2023-03-01T06:35:27;1.50;99.90
4695;DHT22;2361;49.540;8.390;2023-03-01T06:37:58;1.60;99.90
4695;DHT22;2361;49.540;8.390;2023-03-01T06:40:25;1.80;99.90
4695;DHT22;2361;49.540;8.390;2023-03-01T06:42:52;2.00;99.90
4695;DHT22;2361;49.540;8.390;2023-03-01T06:45:20;2.20;99.90
4695;DHT22;2361;49.540;8.390;2023-03-01T06:47:47;2.50;99.90
4695;DHT22;2361;49.540;8.390;2023-03-01T06:50:15;2.90;99.90
4695;DHT22;2361;49.540;8.390;2023-03-01T06:52:43;3.30;99.90
4695;DHT22;2361;49.540;8.390;2023-03-01T06:55:12;3.70;99.90
4695;DHT22;2361;49.540;8.390;2023-03-01T06:57:39;4.30;99.90
4695;DHT22;2361;49.540;8.390;2023-03-01T07:00:07;4.60;99.90
4695;DHT22;2361;49.540;8.390;2023-03-01T07:02:34;4.90;99.90
4695;DHT22;2361;49.540;8.390;2023-03-01T07:05:01;5.30;99.90
4695;DHT22;2361;49.540;8.390;2023-03-01T07:07:28;5.70;99.90
4695;DHT22;2361;49.540;8.390;2023-03-01T07:09:55;6.10;99.90
4695;DHT22;2361;49.540;8.390;2023-03-01T07:12:22;6.30;99.90
4695;DHT22;2361;49.540;8.390;2023-03-01T07:14:49;6.30;99.90
4695;DHT22;2361;49.540;8.390;2023-03-01T07:17:16;6.60;99.90
4695;DHT22;2361;49.540;8.390;2023-03-01T07:19:43;7.10;99.40
4695;DHT22;2361;49.540;8.390;2023-03-01T07:22:11;7.50;97.80
4695;DHT22;2361;49.540;8.390;2023-03-01T07:24:38;7.90;96.50
4695;DHT22;2361;49.540;8.390;2023-03-01T07:27:05;8.30;94.90
4695;DHT22;2361;49.540;8.390;2023-03-01T07:29:32;8.60;93.80
4695;DHT22;2361;49.540;8.390;2023-03-01T07:31:59;8.80;93.00
4695;DHT22;2361;49.540;8.390;2023-03-01T07:34:26;9.10;91.80
4695;DHT22;2361;49.540;8.390;2023-03-01T07:36:53;9.60;90.50
4695;DHT22;2361;49.540;8.390;2023-03-01T07:39:20;9.90;87.60
4695;DHT22;2361;49.540;8.390;2023-03-01T07:41:50;10.30;85.30
4695;DHT22;2361;49.540;8.390;2023-03-01T07:44:17;10.80;82.20
4695;DHT22;2361;49.540;8.390;2023-03-01T07:46:44;11.10;79.20
4695;DHT22;2361;49.540;8.390;2023-03-01T07:49:11;11.50;78.30
4695;DHT22;2361;49.540;8.390;2023-03-01T07:51:38;12.00;75.00
4695;DHT22;2361;49.540;8.390;2023-03-01T07:54:05;12.40;73.30
4695;DHT22;2361;49.540;8.390;2023-03-01T07:56:32;12.80;71.80
4695;DHT22;2361;49.540;8.390;2023-03-01T07:58:59;13.30;69.10
4695;DHT22;2361;49.540;8.390;2023-03-01T08:01:26;13.70;67.30
4695;DHT22;2361;49.540;8.390;2023-03-01T08:03:53;14.00;65.80
4695;DHT22;2361;49.540;8.390;2023-03-01T08:06:20;14.20;64.50
4695;DHT22;2361;49.540;8.390;2023-03-01T08:08:47;15.00;62.40
4695;DHT22;2361;49.540;8.390;2023-03-01T08:11:15;15.80;60.50
4695;DHT22;2361;49.540;8.390;2023-03-01T08:13:43;16.60;58.20
4695;DHT22;2361;49.540;8.390;2023-03-01T08:16:12;17.00;56.00
4695;DHT22;2361;49.540;8.390;2023-03-01T08:18:41;17.00;56.00
4695;DHT22;2361;49.540;8.390;2023-03-01T08:21:11;17.40;54.80
4695;DHT22;2361;49.540;8.390;2023-03-01T08:23:40;17.80;53.90
4695;DHT22;2361;49.540;8.390;2023-03-01T08:26:16;18.20;52.70
4695;DHT22;2361;49.540;8.390;2023-03-01T08:28:45;18.10;52.40
4695;DHT22;2361;49.540;8.390;2023-03-01T08:31:25;18.30;51.30
4695;DHT22;2361;49.540;8.390;2023-03-01T08:34:04;18.10;51.40
4695;DHT22;2361;49.540;8.390;2023-03-01T08:36:36;18.40;50.50
4695;DHT22;2361;49.540;8.390;2023-03-01T08:39:05;18.40;49.70
4695;DHT22;2361;49.540;8.390;2023-03-01T08:41:33;18.40;49.40
4695;DHT22;2361;49.540;8.390;2023-03-01T08:44:00;18.50;49.50
4695;DHT22;2361;49.540;8.390;2023-03-01T08:46:37;18.70;49.20
4695;DHT22;2361;49.540;8.390;2023-03-01T08:49:06;19.40;48.40
4695;DHT22;2361;49.540;8.390;2023-03-01T08:51:35;19.20;47.80
4695;DHT22;2361;49.540;8.390;2023-03-01T08:54:12;18.90;48.50
4695;DHT22;2361;49.540;8.390;2023-03-01T08:56:41;19.20;48.00
4695;DHT22;2361;49.540;8.390;2023-03-01T08:59:10;19.60;47.30
4695;DHT22;2361;49.540;8.390;2023-03-01T09:01:38;19.70;47.00
4695;DHT22;2361;49.540;8.390;2023-03-01T09:04:06;19.60;46.90
4695;DHT22;2361;49.540;8.390;2023-03-01T09:06:34;19.60;46.60
4695;DHT22;2361;49.540;8.390;2023-03-01T09:09:02;19.90;46.80
4695;DHT22;2361;49.540;8.390;2023-03-01T09:11:30;20.10;46.10
4695;DHT22;2361;49.540;8.390;2023-03-01T09:13:57;21.10;45.20
4695;DHT22;2361;49.540;8.390;2023-03-01T09:16:24;21.90;44.10
4695;DHT22;2361;49.540;8.390;2023-03-01T09:18:53;21.70;44.10
4695;DHT22;2361;49.540;8.390;2023-03-01T09:21:22;22.10;43.60
4695;DHT22;2361;49.540;8.390;2023-03-01T09:24:06;22.50;43.30
4695;DHT22;2361;49.540;8.390;2023-03-01T09:26:42;23.10;42.50
4695;DHT22;2361;49.540;8.390;2023-03-01T09:29:13;22.30;42.90
4695;DHT22;2361;49.540;8.390;2023-03-01T09:31:41;22.00;42.80
4695;DHT22;2361;49.540;8.390;2023-03-01T09:34:09;21.70;42.70
4695;DHT22;2361;49.540;8.390;2023-03-01T09:36:36;21.80;42.70
4695;DHT22;2361;49.540;8.390;2023-03-01T09:39:03;21.70;42.90
4695;DHT22;2361;49.540;8.390;2023-03-01T09:41:53;22.20;42.40
4695;DHT22;2361;49.540;8.390;2023-03-01T09:47:25;22.20;42.20
4695;DHT22;2361;49.540;8.390;2023-03-01T09:50:16;22.30;42.00
4695;DHT22;2361;49.540;8.390;2023-03-01T09:52:50;22.40;42.10
4695;DHT22;2361;49.540;8.390;2023-03-01T10:01:38;22.90;41.10
4695;DHT22;2361;49.540;8.390;2023-03-01T10:04:45;23.10;41.10
4695;DHT22;2361;49.540;8.390;2023-03-01T10:07:27;23.30;41.00
4695;DHT22;2361;49.540;8.390;2023-03-01T10:10:07;23.50;40.60
4695;DHT22;2361;49.540;8.390;2023-03-01T10:12:39;23.50;39.90
4695;DHT22;2361;49.540;8.390;2023-03-01T10:15:14;22.50;40.10
4695;DHT22;2361;49.540;8.390;2023-03-01T10:17:57;21.80;40.80
4695;DHT22;2361;49.540;8.390;2023-03-01T10:20:51;22.50;40.20
4695;DHT22;2361;49.540;8.390;2023-03-01T10:23:21;24.00;39.40
4695;DHT22;2361;49.540;8.390;2023-03-01T10:25:59;25.00;38.50
4695;DHT22;2361;49.540;8.390;2023-03-01T10:31:26;24.30;38.20
4695;DHT22;2361;49.540;8.390;2023-03-01T10:34:31;24.70;38.30
4695;DHT22;2361;49.540;8.390;2023-03-01T10:37:15;24.40;38.00
4695;DHT22;2361;49.540;8.390;2023-03-01T10:40:06;24.30;38.10
4695;DHT22;2361;49.540;8.390;2023-03-01T10:42:46;22.80;39.30
4695;DHT22;2361;49.540;8.390;2023-03-01T10:48:26;22.90;39.40
4695;DHT22;2361;49.540;8.390;2023-03-01T10:53:31;21.50;40.30
4695;DHT22;2361;49.540;8.390;2023-03-01T10:56:11;20.20;41.60
4695;DHT22;2361;49.540;8.390;2023-03-01T10:59:04;18.10;43.50
4695;DHT22;2361;49.540;8.390;2023-03-01T11:01:34;16.70;45.10
4695;DHT22;2361;49.540;8.390;2023-03-01T11:06:39;13.90;49.10
4695;DHT22;2361;49.540;8.390;2023-03-01T11:09:22;13.00;50.40
4695;DHT22;2361;49.540;8.390;2023-03-01T11:11:56;12.30;51.90
4695;DHT22;2361;49.540;8.390;2023-03-01T11:14:33;11.90;53.20
4695;DHT22;2361;49.540;8.390;2023-03-01T11:17:03;11.30;53.90
4695;DHT22;2361;49.540;8.390;2023-03-01T11:19:42;10.80;54.60
4695;DHT22;2361;49.540;8.390;2023-03-01T11:22:23;10.40;55.60
4695;DHT22;2361;49.540;8.390;2023-03-01T11:24:52;10.00;56.50
4695;DHT22;2361;49.540;8.390;2023-03-01T11:27:40;9.80;56.80
4695;DHT22;2361;49.540;8.390;2023-03-01T11:30:27;9.50;57.50
4695;DHT22;2361;49.540;8.390;2023-03-01T11:35:29;9.10;59.10
4695;DHT22;2361;49.540;8.390;2023-03-01T11:38:09;8.90;59.80
4695;DHT22;2361;49.540;8.390;2023-03-01T11:41:00;8.50;60.80
4695;DHT22;2361;49.540;8.390;2023-03-01T11:49:57;8.20;62.00
4695;DHT22;2361;49.540;8.390;2023-03-01T12:12:53;8.00;64.60
4695;DHT22;2361;49.540;8.390;2023-03-01T12:24:28;8.00;64.90
4695;DHT22;2361;49.540;8.390;2023-03-01T12:27:42;7.90;65.50
4695;DHT22;2361;49.540;8.390;2023-03-01T12:33:45;7.90;66.10
4695;DHT22;2361;49.540;8.390;2023-03-01T12:36:48;7.90;66.60
4695;DHT22;2361;49.540;8.390;2023-03-01T12:39:44;7.90;67.00
4695;DHT22;2361;49.540;8.390;2023-03-01T12:48:36;8.00;67.20
4695;DHT22;2361;49.540;8.390;2023-03-01T12:51:10;8.00;67.20
4695;DHT22;2361;49.540;8.390;2023-03-01T12:53:46;8.00;67.40
4695;DHT22;2361;49.540;8.390;2023-03-01T12:56:22;7.90;67.10
4695;DHT22;2361;49.540;8.390;2023-03-01T13:01:45;7.90;68.00
4695;DHT22;2361;49.540;8.390;2023-03-01T13:05:00;7.90;67.60
4695;DHT22;2361;49.540;8.390;2023-03-01T13:07:50;7.90;68.40
4695;DHT22;2361;49.540;8.390;2023-03-01T13:10:31;8.00;68.50
4695;DHT22;2361;49.540;8.390;2023-03-01T13:13:11;8.00;67.40
4695;DHT22;2361;49.540;8.390;2023-03-01T13:15:40;8.00;67.20
4695;DHT22;2361;49.540;8.390;2023-03-01T13:20:49;7.90;67.90
4695;DHT22;2361;49.540;8.390;2023-03-01T13:31:03;8.10;67.80
4695;DHT22;2361;49.540;8.390;2023-03-01T13:38:56;8.00;68.80
4695;DHT22;2361;49.540;8.390;2023-03-01T13:44:26;8.00;68.80
4695;DHT22;2361;49.540;8.390;2023-03-01T13:47:06;8.10;69.30
4695;DHT22;2361;49.540;8.390;2023-03-01T13:52:56;8.20;69.10
4695;DHT22;2361;49.540;8.390;2023-03-01T13:55:38;8.20;69.00
4695;DHT22;2361;49.540;8.390;2023-03-01T13:58:23;8.10;69.40
4695;DHT22;2361;49.540;8.390;2023-03-01T14:01:00;8.20;69.30
4695;DHT22;2361;49.540;8.390;2023-03-01T14:03:33;8.10;68.90
4695;DHT22;2361;49.540;8.390;2023-03-01T14:06:13;8.20;69.00
4695;DHT22;2361;49.540;8.390;2023-03-01T14:08:49;8.20;68.40
4695;DHT22;2361;49.540;8.390;2023-03-01T14:14:40;8.20;69.70
4695;DHT22;2361;49.540;8.390;2023-03-01T14:17:36;8.30;68.60
4695;DHT22;2361;49.540;8.390;2023-03-01T14:20:28;8.30;69.30
4695;DHT22;2361;49.540;8.390;2023-03-01T14:23:00;8.30;68.80
4695;DHT22;2361;49.540;8.390;2023-03-01T14:25:34;8.20;68.80
4695;DHT22;2361;49.540;8.390;2023-03-01T14:28:27;8.20;69.00
4695;DHT22;2361;49.540;8.390;2023-03-01T14:30:57;8.20;69.30
4695;DHT22;2361;49.540;8.390;2023-03-01T14:33:33;8.30;69.30
4695;DHT22;2361;49.540;8.390;2023-03-01T14:36:07;8.30;69.40
4695;DHT22;2361;49.540;8.390;2023-03-01T14:38:41;8.40;69.30
4695;DHT22;2361;49.540;8.390;2023-03-01T14:41:21;8.40;68.90
4695;DHT22;2361;49.540;8.390;2023-03-01T14:43:52;8.50;68.80
4695;DHT22;2361;49.540;8.390;2023-03-01T14:46:38;8.50;69.10
4695;DHT22;2361;49.540;8.390;2023-03-01T14:49:19;8.70;68.00
4695;DHT22;2361;49.540;8.390;2023-03-01T14:51:54;8.70;67.50
4695;DHT22;2361;49.540;8.390;2023-03-01T14:57:01;8.90;66.80
4695;DHT22;2361;49.540;8.390;2023-03-01T14:59:29;8.80;67.50
4695;DHT22;2361;49.540;8.390;2023-03-01T15:01:57;8.70;67.40
4695;DHT22;2361;49.540;8.390;2023-03-01T15:04:26;8.70;68.00
4695;DHT22;2361;49.540;8.390;2023-03-01T15:06:55;8.80;68.00
4695;DHT22;2361;49.540;8.390;2023-03-01T15:09:32;8.70;67.90
4695;DHT22;2361;49.540;8.390;2023-03-01T15:14:56;8.80;67.80
4695;DHT22;2361;49.540;8.390;2023-03-01T15:20:04;8.70;67.70
4695;DHT22;2361;49.540;8.390;2023-03-01T15:22:33;8.80;67.20
4695;DHT22;2361;49.540;8.390;2023-03-01T15:25:01;8.80;67.40
4695;DHT22;2361;49.540;8.390;2023-03-01T15:27:28;8.80;67.90
4695;DHT22;2361;49.540;8.390;2023-03-01T15:29:58;8.80;68.00
4695;DHT22;2361;49.540;8.390;2023-03-01T15:32:35;8.80;67.70
4695;DHT22;2361;49.540;8.390;2023-03-01T15:35:41;8.90;68.00
4695;DHT22;2361;49.540;8.390;2023-03-01T15:41:46;9.00;67.40
4695;DHT22;2361;49.540;8.390;2023-03-01T15:44:29;9.00;67.10
4695;DHT22;2361;49.540;8.390;2023-03-01T15:47:30;9.00;66.90
4695;DHT22;2361;49.540;8.390;2023-03-01T15:49:58;9.00;67.20
4695;DHT22;2361;49.540;8.390;2023-03-01T15:52:40;9.00;66.80
4695;DHT22;2361;49.540;8.390;2023-03-01T15:55:17;9.00;66.80
4695;DHT22;2361;49.540;8.390;2023-03-01T15:57:46;9.10;66.30
4695;DHT22;2361;49.540;8.390;2023-03-01T16:00:15;9.10;66.80
4695;DHT22;2361;49.540;8.390;2023-03-01T16:02:44;9.00;66.90
4695;DHT22;2361;49.540;8.390;2023-03-01T16:07:50;8.90;68.20
4695;DHT22;2361;49.540;8.390;2023-03-01T16:10:18;8.80;67.90
4695;DHT22;2361;49.540;8.390;2023-03-01T16:12:45;8.70;68.00
4695;DHT22;2361;49.540;8.390;2023-03-01T16:15:18;8.80;67.50
4695;DHT22;2361;49.540;8.390;2023-03-01T16:17:49;8.80;67.90
4695;DHT22;2361;49.540;8.390;2023-03-01T16:20:16;8.90;67.10
4695;DHT22;2361;49.540;8.390;2023-03-01T16:22:53;8.90;67.10
4695;DHT22;2361;49.540;8.390;2023-03-01T16:25:21;8.80;67.50
4695;DHT22;2361;49.540;8.390;2023-03-01T16:27:49;8.80;67.50
4695;DHT22;2361;49.540;8.390;2023-03-01T16:30:19;8.80;67.90
4695;DHT22;2361;49.540;8.390;2023-03-01T16:32:48;8.80;68.10
4695;DHT22;2361;49.540;8.390;2023-03-01T16:35:18;8.70;68.30
4695;DHT22;2361;49.540;8.390;2023-03-01T16:37:47;8.70;68.50
4695;DHT22;2361;49.540;8.390;2023-03-01T16:40:26;8.60;69.80
4695;DHT22;2361;49.540;8.390;2023-03-01T16:42:55;8.50;70.40
4695;DHT22;2361;49.540;8.390;2023-03-01T16:45:27;8.50;71.00
4695;DHT22;2361;49.540;8.390;2023-03-01T16:48:03;8.30;71.70
4695;DHT22;2361;49.540;8.390;2023-03-01T16:50:30;8.30;71.50
4695;DHT22;2361;49.540;8.390;2023-03-01T16:52:57;8.20;71.80
4695;DHT22;2361;49.540;8.390;2023-03-01T16:55:24;8.20;71.90
4695;DHT22;2361;49.540;8.390;2023-03-01T16:57:51;8.10;72.30
4695;DHT22;2361;49.540;8.390;2023-03-01T17:00:19;8.00;72.70
4695;DHT22;2361;49.540;8.390;2023-03-01T17:02:46;8.00;72.80
4695;DHT22;2361;49.540;8.390;2023-03-01T17:05:13;8.00;72.80
4695;DHT22;2361;49.540;8.390;2023-03-01T17:07:40;7.90;73.50
4695;DHT22;2361;49.540;8.390;2023-03-01T17:10:09;7.90;73.60
4695;DHT22;2361;49.540;8.390;2023-03-01T17:12:37;7.90;74.10
4695;DHT22;2361;49.540;8.390;2023-03-01T17:15:05;7.80;74.30
4695;DHT22;2361;49.540;8.390;2023-03-01T17:17:33;7.80;74.70
4695;DHT22;2361;49.540;8.390;2023-03-01T17:20:01;7.80;74.70
4695;DHT22;2361;49.540;8.390;2023-03-01T17:22:30;7.70;75.00
4695;DHT22;2361;49.540;8.390;2023-03-01T17:24:57;7.60;75.20
4695;DHT22;2361;49.540;8.390;2023-03-01T17:27:24;7.60;75.40
4695;DHT22;2361;49.540;8.390;2023-03-01T17:29:51;7.50;75.90
4695;DHT22;2361;49.540;8.390;2023-03-01T17:32:18;7.40;76.20
4695;DHT22;2361;49.540;8.390;2023-03-01T17:34:45;7.30;76.80
4695;DHT22;2361;49.540;8.390;2023-03-01T17:37:12;7.20;77.80
4695;DHT22;2361;49.540;8.390;2023-03-01T17:39:39;7.20;77.60
4695;DHT22;2361;49.540;8.390;2023-03-01T17:42:06;7.10;77.80
4695;DHT22;2361;49.540;8.390;2023-03-01T17:44:33;7.00;78.30
4695;DHT22;2361;49.540;8.390;2023-03-01T17:47:04;7.00;78.50
4695;DHT22;2361;49.540;8.390;2023-03-01T17:49:32;6.90;78.80
4695;DHT22;2361;49.540;8.390;2023-03-01T17:51:59;6.90;79.40
4695;DHT22;2361;49.540;8.390;2023-03-01T17:54:26;6.80;79.70
4695;DHT22;2361;49.540;8.390;2023-03-01T17:56:53;6.80;80.10
4695;DHT22;2361;49.540;8.390;2023-03-01T17:59:21;6.80;80.40
4695;DHT22;2361;49.540;8.390;2023-03-01T18:01:48;6.80;80.60
4695;DHT22;2361;49.540;8.390;2023-03-01T18:04:15;6.80;80.90
4695;DHT22;2361;49.540;8.390;2023-03-01T18:06:43;6.70;81.20
4695;DHT22;2361;49.540;8.390;2023-03-01T18:09:10;6.70;82.10
4695;DHT22;2361;49.540;8.390;2023-03-01T18:11:37;6.70;82.40
4695;DHT22;2361;49.540;8.390;2023-03-01T18:14:05;6.60;82.80
4695;DHT22;2361;49.540;8.390;2023-03-01T18:16:32;6.60;83.20
4695;DHT22;2361;49.540;8.390;2023-03-01T18:19:00;6.60;83.60
4695;DHT22;2361;49.540;8.390;2023-03-01T18:21:28;6.50;84.20
4695;DHT22;2361;49.540;8.390;2023-03-01T18:23:56;6.50;84.70
4695;DHT22;2361;49.540;8.390;2023-03-01T18:26:25;6.40;85.40
4695;DHT22;2361;49.540;8.390;2023-03-01T18:28:53;6.40;85.70
4695;DHT22;2361;49.540;8.390;2023-03-01T18:31:24;6.30;86.00
4695;DHT22;2361;49.540;8.390;2023-03-01T18:33:53;6.30;86.70
4695;DHT22;2361;49.540;8.390;2023-03-01T18:36:31;6.30;87.00
4695;DHT22;2361;49.540;8.390;2023-03-01T18:39:04;6.20;87.70
4695;DHT22;2361;49.540;8.390;2023-03-01T18:41:32;6.20;88.30
4695;DHT22;2361;49.540;8.390;2023-03-01T18:44:00;6.20;89.00
4695;DHT22;2361;49.540;8.390;2023-03-01T18:46:29;6.10;89.60
4695;DHT22;2361;49.540;8.390;2023-03-01T18:48:57;6.10;90.00
4695;DHT22;2361;49.540;8.390;2023-03-01T18:51:25;6.00;90.30